sensor_id;sensor_type;location;lat;lon;timestamp;temperature;humidity
14733;DHT22;7457;50.960;6.830;2023-02-13T00:00:31;8.40;86.60
14733;DHT22;7457;50.960;6.830;2023-02-13T00:02:57;8.40;86.60
14733;DHT22;7457;50.960;6.830;2023-02-13T00:05:22;8.40;86.60
14733;DHT22;7457;50.960;6.830;2023-02-13T00:07:48;8.40;86.60
14733;DHT22;7457;50.960;6.830;2023-02-13T00:10:13;8.40;86.60
14733;DHT22;7457;50.960;6.830;2023-02-13T00:12:39;8.40;86.60
14733;DHT22;7457;50.960;6.830;2023-02-13T00:15:05;8.40;86.60
14733;DHT22;7457;50.960;6.830;2023-02-13T00:17:31;8.40;86.70
14733;DHT22;7457;50.960;6.830;2023-02-13T00:19:56;8.30;86.80
14733;DHT22;7457;50.960;6.830;2023-02-13T00:22:22;8.30;86.90
14733;DHT22;7457;50.960;6.830;2023-02-13T00:24:48;8.30;86.90
14733;DHT22;7457;50.960;6.830;2023-02-13T00:27:14;8.30;86.90
14733;DHT22;7457;50.960;6.830;2023-02-13T00:29:39;8.30;86.90
14733;DHT22;7457;50.960;6.830;2023-02-13T00:32:05;8.30;87.00
14733;DHT22;7457;50.960;6.830;2023-02-13T00:34:31;8.30;87.10
14733;DHT22;7457;50.960;6.830;2023-02-13T00:36:56;8.20;87.10
14733;DHT22;7457;50.960;6.830;2023-02-13T00:39:22;8.20;87.10
14733;DHT22;7457;50.960;6.830;2023-02-13T00:41:47;8.30;87.10
14733;DHT22;7457;50.960;6.830;2023-02-13T00:44:13;8.20;87.10
14733;DHT22;7457;50.960;6.830;2023-02-13T00:46:39;8.30;87.10
14733;DHT22;7457;50.960;6.830;2023-02-13T00:49:05;8.30;87.20
14733;DHT22;7457;50.960;6.830;2023-02-13T00:51:30;8.20;87.20
14733;DHT22;7457;50.960;6.830;2023-02-13T00:53:56;8.20;87.20
14733;DHT22;7457;50.960;6.830;2023-02-13T00:56:22;8.20;87.10
14733;DHT22;7457;50.960;6.830;2023-02-13T00:58:47;8.20;87.20
14733;DHT22;7457;50.960;6.830;2023-02-13T01:01:13;8.20;87.30
14733;DHT22;7457;50.960;6.830;2023-02-13T01:03:39;8.20;87.40
14733;DHT22;7457;50.960;6.830;2023-02-13T01:06:05;8.20;87.40
14733;DHT22;7457;50.960;6.830;2023-02-13T01:08:31;8.20;87.50
14733;DHT22;7457;50.960;6.830;2023-02-13T01:10:57;8.20;87.50
14733;DHT22;7457;50.960;6.830;2023-02-13T01:13:22;8.20;87.50
14733;DHT22;7457;50.960;6.830;2023-02-13T01:15:49;8.20;87.60
14733;DHT22;7457;50.960;6.830;2023-02-13T01:18:17;8.20;87.60
14733;DHT22;7457;50.960;6.830;2023-02-13T01:20:43;8.20;87.60
14733;DHT22;7457;50.960;6.830;2023-02-13T01:23:09;8.20;87.60
14733;DHT22;7457;50.960;6.830;2023-02-13T01:25:41;8.20;87.60
14733;DHT22;7457;50.960;6.830;2023-02-13T01:28:06;8.20;87.60
14733;DHT22;7457;50.960;6.830;2023-02-13T01:30:32;8.20;87.60
14733;DHT22;7457;50.960;6.830;2023-02-13T01:32:58;8.10;87.70
14733;DHT22;7457;50.960;6.830;2023-02-13T01:35:23;8.10;87.80
14733;DHT22;7457;50.960;6.830;2023-02-13T01:37:49;8.10;87.80
14733;DHT22;7457;50.960;6.830;2023-02-13T01:40:14;8.20;87.80
14733;DHT22;7457;50.960;6.830;2023-02-13T01:42:41;8.20;87.80
14733;DHT22;7457;50.960;6.830;2023-02-13T01:45:25;8.10;87.80
14733;DHT22;7457;50.960;6.830;2023-02-13T01:50:32;8.10;87.90
14733;DHT22;7457;50.960;6.830;2023-02-13T01:55:49;8.10;87.90
14733;DHT22;7457;50.960;6.830;2023-02-13T01:58:18;8.10;87.90
14733;DHT22;7457;50.960;6.830;2023-02-13T02:00:45;8.10;87.90
14733;DHT22;7457;50.960;6.830;2023-02-13T02:03:24;8.10;87.80
14733;DHT22;7457;50.960;6.830;2023-02-13T02:05:54;8.10;87.90
14733;DHT22;7457;50.960;6.830;2023-02-13T02:08:21;8.10;87.90
14733;DHT22;7457;50.960;6.830;2023-02-13T02:10:47;8.10;87.90
14733;DHT22;7457;50.960;6.830;2023-02-13T02:13:16;8.00;88.00
14733;DHT22;7457;50.960;6.830;2023-02-13T02:15:43;8.00;88.10
14733;DHT22;7457;50.960;6.830;2023-02-13T02:18:18;8.00;88.10
14733;DHT22;7457;50.960;6.830;2023-02-13T02:35:00;8.00;88.40
14733;DHT22;7457;50.960;6.830;2023-02-13T02:51:24;7.90;88.70
14733;DHT22;7457;50.960;6.830;2023-02-13T02:54:24;7.90;88.80
14733;DHT22;7457;50.960;6.830;2023-02-13T02:57:16;7.90;88.80
14733;DHT22;7457;50.960;6.830;2023-02-13T02:59:45;7.90;88.70
14733;DHT22;7457;50.960;6.830;2023-02-13T03:02:40;7.90;88.70
14733;DHT22;7457;50.960;6.830;2023-02-13T03:05:28;8.00;88.70
14733;DHT22;7457;50.960;6.830;2023-02-13T03:08:14;7.90;88.70
14733;DHT22;7457;50.960;6.830;2023-02-13T03:11:00;7.90;88.60
14733;DHT22;7457;50.960;6.830;2023-02-13T03:13:47;7.90;88.70
14733;DHT22;7457;50.960;6.830;2023-02-13T03:16:17;7.90;88.80
14733;DHT22;7457;50.960;6.830;2023-02-13T03:19:02;7.90;88.80
14733;DHT22;7457;50.960;6.830;2023-02-13T03:22:01;7.80;88.90
14733;DHT22;7457;50.960;6.830;2023-02-13T03:27:53;7.80;88.90
14733;DHT22;7457;50.960;6.830;2023-02-13T03:36:06;7.80;88.70
14733;DHT22;7457;50.960;6.830;2023-02-13T03:38:56;7.80;88.70
14733;DHT22;7457;50.960;6.830;2023-02-13T03:41:27;7.80;88.70
14733;DHT22;7457;50.960;6.830;2023-02-13T03:46:36;7.80;88.80
14733;DHT22;7457;50.960;6.830;2023-02-13T03:49:05;7.70;88.80
14733;DHT22;7457;50.960;6.830;2023-02-13T03:54:37;7.70;88.90
14733;DHT22;7457;50.960;6.830;2023-02-13T03:57:23;7.70;89.00
14733;DHT22;7457;50.960;6.830;2023-02-13T04:00:11;7.70;89.00
14733;DHT22;7457;50.960;6.830;2023-02-13T04:02:42;7.70;89.00
14733;DHT22;7457;50.960;6.830;2023-02-13T04:05:16;7.70;89.00
14733;DHT22;7457;50.960;6.830;2023-02-13T04:07:42;7.70;89.10
14733;DHT22;7457;50.960;6.830;2023-02-13T04:10:11;7.70;89.10
14733;DHT22;7457;50.960;6.830;2023-02-13T04:18:06;7.60;89.10
14733;DHT22;7457;50.960;6.830;2023-02-13T04:20:34;7.60;89.10
14733;DHT22;7457;50.960;6.830;2023-02-13T04:23:05;7.60;89.10
14733;DHT22;7457;50.960;6.830;2023-02-13T04:25:31;7.50;89.20
14733;DHT22;7457;50.960;6.830;2023-02-13T04:27:56;7.50;89.40
14733;DHT22;7457;50.960;6.830;2023-02-13T04:30:22;7.50;89.40
14733;DHT22;7457;50.960;6.830;2023-02-13T04:32:47;7.50;89.50
14733;DHT22;7457;50.960;6.830;2023-02-13T04:35:13;7.50;89.50
14733;DHT22;7457;50.960;6.830;2023-02-13T04:37:39;7.50;89.50
14733;DHT22;7457;50.960;6.830;2023-02-13T04:40:05;7.50;89.60
14733;DHT22;7457;50.960;6.830;2023-02-13T04:42:31;7.50;89.60
14733;DHT22;7457;50.960;6.830;2023-02-13T04:44:56;7.50;89.60
14733;DHT22;7457;50.960;6.830;2023-02-13T04:47:22;7.50;89.60
14733;DHT22;7457;50.960;6.830;2023-02-13T04:49:47;7.50;89.50
14733;DHT22;7457;50.960;6.830;2023-02-13T04:52:13;7.40;89.60
14733;DHT22;7457;50.960;6.830;2023-02-13T04:54:40;7.40;89.60
14733;DHT22;7457;50.960;6.830;2023-02-13T04:57:05;7.40;89.70
14733;DHT22;7457;50.960;6.830;2023-02-13T04:59:31;7.30;89.70
14733;DHT22;7457;50.960;6.830;2023-02-13T05:01:57;7.30;89.60
14733;DHT22;7457;50.960;6.830;2023-02-13T05:04:23;7.30;89.70
14733;DHT22;7457;50.960;6.830;2023-02-13T05:06:50;7.20;89.60
14733;DHT22;7457;50.960;6.830;2023-02-13T05:09:15;7.10;89.60
14733;DHT22;7457;50.960;6.830;2023-02-13T05:11:41;7.00;89.70
14733;DHT22;7457;50.960;6.830;2023-02-13T05:14:08;7.00;89.90
14733;DHT22;7457;50.960;6.830;2023-02-13T05:16:34;6.90;89.80
14733;DHT22;7457;50.960;6.830;2023-02-13T05:19:00;6.90;90.00
14733;DHT22;7457;50.960;6.830;2023-02-13T05:21:25;6.80;90.10
14733;DHT22;7457;50.960;6.830;2023-02-13T05:24:09;6.80;90.30
14733;DHT22;7457;50.960;6.830;2023-02-13T05:26:35;6.70;90.50
14733;DHT22;7457;50.960;6.830;2023-02-13T05:29:01;6.70;90.50
14733;DHT22;7457;50.960;6.830;2023-02-13T05:31:52;6.60;90.60
14733;DHT22;7457;50.960;6.830;2023-02-13T05:34:22;6.60;90.70
14733;DHT22;7457;50.960;6.830;2023-02-13T05:36:49;6.50;90.80
14733;DHT22;7457;50.960;6.830;2023-02-13T05:39:15;6.40;90.90
14733;DHT22;7457;50.960;6.830;2023-02-13T05:41:42;6.40;91.00
14733;DHT22;7457;50.960;6.830;2023-02-13T05:44:08;6.30;91.30
14733;DHT22;7457;50.960;6.830;2023-02-13T05:46:36;6.30;91.40
14733;DHT22;7457;50.960;6.830;2023-02-13T05:49:02;6.20;91.50
14733;DHT22;7457;50.960;6.830;2023-02-13T05:51:28;6.20;91.80
14733;DHT22;7457;50.960;6.830;2023-02-13T05:53:54;6.20;91.90
14733;DHT22;7457;50.960;6.830;2023-02-13T05:56:19;6.20;92.00
14733;DHT22;7457;50.960;6.830;2023-02-13T05:58:45;6.10;92.00
14733;DHT22;7457;50.960;6.830;2023-02-13T06:01:11;6.10;91.90
14733;DHT22;7457;50.960;6.830;2023-02-13T06:03:36;6.10;92.00
14733;DHT22;7457;50.960;6.830;2023-02-13T06:06:04;6.00;92.00
14733;DHT22;7457;50.960;6.830;2023-02-13T06:08:30;6.00;92.00
14733;DHT22;7457;50.960;6.830;2023-02-13T06:10:56;5.90;92.30
14733;DHT22;7457;50.960;6.830;2023-02-13T06:13:21;5.90;92.40
14733;DHT22;7457;50.960;6.830;2023-02-13T06:15:47;5.90;92.50
14733;DHT22;7457;50.960;6.830;2023-02-13T06:18:13;5.80;92.50
14733;DHT22;7457;50.960;6.830;2023-02-13T06:20:38;5.80;92.60
14733;DHT22;7457;50.960;6.830;2023-02-13T06:23:04;5.80;92.90
14733;DHT22;7457;50.960;6.830;2023-02-13T06:25:29;5.80;93.20
14733;DHT22;7457;50.960;6.830;2023-02-13T06:27:55;5.70;93.20
14733;DHT22;7457;50.960;6.830;2023-02-13T06:30:21;5.70;93.30
14733;DHT22;7457;50.960;6.830;2023-02-13T06:32:47;5.70;93.30
14733;DHT22;7457;50.960;6.830;2023-02-13T06:35:14;5.60;93.40
14733;DHT22;7457;50.960;6.830;2023-02-13T06:37:40;5.60;93.70
14733;DHT22;7457;50.960;6.830;2023-02-13T06:40:09;5.60;93.90
14733;DHT22;7457;50.960;6.830;2023-02-13T06:42:35;5.60;94.20
14733;DHT22;7457;50.960;6.830;2023-02-13T06:45:01;5.60;94.30
14733;DHT22;7457;50.960;6.830;2023-02-13T06:47:26;5.60;94.40
14733;DHT22;7457;50.960;6.830;2023-02-13T06:49:52;5.60;94.70
14733;DHT22;7457;50.960;6.830;2023-02-13T06:52:19;5.60;94.80
14733;DHT22;7457;50.960;6.830;2023-02-13T06:54:44;5.60;94.90
14733;DHT22;7457;50.960;6.830;2023-02-13T06:57:10;5.60;95.00
14733;DHT22;7457;50.960;6.830;2023-02-13T06:59:35;5.60;95.00
14733;DHT22;7457;50.960;6.830;2023-02-13T07:02:01;5.60;95.10
14733;DHT22;7457;50.960;6.830;2023-02-13T07:04:27;5.60;95.30
14733;DHT22;7457;50.960;6.830;2023-02-13T07:06:54;5.60;95.50
14733;DHT22;7457;50.960;6.830;2023-02-13T07:09:24;5.70;95.80
14733;DHT22;7457;50.960;6.830;2023-02-13T07:11:50;5.70;96.00
14733;DHT22;7457;50.960;6.830;2023-02-13T07:14:15;5.80;96.40
14733;DHT22;7457;50.960;6.830;2023-02-13T07:16:41;5.90;96.50
14733;DHT22;7457;50.960;6.830;2023-02-13T07:19:06;6.00;96.80
14733;DHT22;7457;50.960;6.830;2023-02-13T07:21:35;6.10;97.00
14733;DHT22;7457;50.960;6.830;2023-02-13T07:24:02;6.30;97.10
14733;DHT22;7457;50.960;6.830;2023-02-13T07:26:28;6.50;97.30
14733;DHT22;7457;50.960;6.830;2023-02-13T07:28:54;6.70;97.00
14733;DHT22;7457;50.960;6.830;2023-02-13T07:31:19;6.90;97.00
14733;DHT22;7457;50.960;6.830;2023-02-13T07:33:48;7.20;96.50
14733;DHT22;7457;50.960;6.830;2023-02-13T07:36:13;7.50;95.90
14733;DHT22;7457;50.960;6.830;2023-02-13T07:38:39;7.70;95.70
14733;DHT22;7457;50.960;6.830;2023-02-13T07:41:04;8.00;95.10
14733;DHT22;7457;50.960;6.830;2023-02-13T07:43:30;8.30;94.90
14733;DHT22;7457;50.960;6.830;2023-02-13T07:46:00;8.60;93.60
14733;DHT22;7457;50.960;6.830;2023-02-13T07:48:26;8.90;92.30
14733;DHT22;7457;50.960;6.830;2023-02-13T07:50:52;9.00;91.30
14733;DHT22;7457;50.960;6.830;2023-02-13T07:53:18;9.20;90.70
14733;DHT22;7457;50.960;6.830;2023-02-13T07:55:44;9.40;90.40
14733;DHT22;7457;50.960;6.830;2023-02-13T07:58:09;9.60;90.00
14733;DHT22;7457;50.960;6.830;2023-02-13T08:00:35;9.70;89.10
14733;DHT22;7457;50.960;6.830;2023-02-13T08:03:01;9.90;88.10
14733;DHT22;7457;50.960;6.830;2023-02-13T08:05:28;10.00;87.30
14733;DHT22;7457;50.960;6.830;2023-02-13T08:07:55;10.00;86.60
14733;DHT22;7457;50.960;6.830;2023-02-13T08:10:21;10.10;86.20
14733;DHT22;7457;50.960;6.830;2023-02-13T08:13:21;10.10;85.80
14733;DHT22;7457;50.960;6.830;2023-02-13T08:15:47;10.10;85.10
14733;DHT22;7457;50.960;6.830;2023-02-13T08:18:13;10.00;85.00
14733;DHT22;7457;50.960;6.830;2023-02-13T08:20:38;9.90;84.40
14733;DHT22;7457;50.960;6.830;2023-02-13T08:23:05;9.90;84.40
14733;DHT22;7457;50.960;6.830;2023-02-13T08:25:32;9.80;84.20
14733;DHT22;7457;50.960;6.830;2023-02-13T08:27:59;9.60;83.70
14733;DHT22;7457;50.960;6.830;2023-02-13T08:30:25;9.40;84.00
14733;DHT22;7457;50.960;6.830;2023-02-13T08:32:50;9.30;84.30
14733;DHT22;7457;50.960;6.830;2023-02-13T08:35:16;9.10;84.70
14733;DHT22;7457;50.960;6.830;2023-02-13T08:37:41;9.10;84.90
14733;DHT22;7457;50.960;6.830;2023-02-13T08:40:07;9.10;85.10
14733;DHT22;7457;50.960;6.830;2023-02-13T08:42:38;9.00;84.80
14733;DHT22;7457;50.960;6.830;2023-02-13T08:45:03;9.00;84.90
14733;DHT22;7457;50.960;6.830;2023-02-13T08:47:30;9.10;84.50
14733;DHT22;7457;50.960;6.830;2023-02-13T08:49:55;9.00;84.20
14733;DHT22;7457;50.960;6.830;2023-02-13T08:52:21;9.00;84.20
14733;DHT22;7457;50.960;6.830;2023-02-13T08:54:47;9.00;84.20
14733;DHT22;7457;50.960;6.830;2023-02-13T08:57:12;8.90;84.00
14733;DHT22;7457;50.960;6.830;2023-02-13T08:59:38;8.90;84.30
14733;DHT22;7457;50.960;6.830;2023-02-13T09:02:03;8.90;84.30
14733;DHT22;7457;50.960;6.830;2023-02-13T09:04:29;8.90;84.30
14733;DHT22;7457;50.960;6.830;2023-02-13T09:06:55;8.90;84.20
14733;DHT22;7457;50.960;6.830;2023-02-13T09:09:21;8.90;84.10
14733;DHT22;7457;50.960;6.830;2023-02-13T09:11:47;8.90;83.70
14733;DHT22;7457;50.960;6.830;2023-02-13T09:14:12;8.90;83.80
14733;DHT22;7457;50.960;6.830;2023-02-13T09:16:38;8.90;84.00
14733;DHT22;7457;50.960;6.830;2023-02-13T09:19:04;9.00;83.80
14733;DHT22;7457;50.960;6.830;2023-02-13T09:21:29;9.00;83.60
14733;DHT22;7457;50.960;6.830;2023-02-13T09:23:55;9.00;83.40
14733;DHT22;7457;50.960;6.830;2023-02-13T09:26:21;9.10;83.10
14733;DHT22;7457;50.960;6.830;2023-02-13T09:28:47;9.20;83.50
14733;DHT22;7457;50.960;6.830;2023-02-13T09:31:15;9.30;83.30
14733;DHT22;7457;50.960;6.830;2023-02-13T09:33:43;9.40;82.70
14733;DHT22;7457;50.960;6.830;2023-02-13T09:36:11;9.50;82.90
14733;DHT22;7457;50.960;6.830;2023-02-13T09:38:39;9.60;82.50
14733;DHT22;7457;50.960;6.830;2023-02-13T09:41:21;9.70;82.20
14733;DHT22;7457;50.960;6.830;2023-02-13T09:46:35;10.00;81.50
14733;DHT22;7457;50.960;6.830;2023-02-13T09:49:06;10.20;81.40
14733;DHT22;7457;50.960;6.830;2023-02-13T09:51:34;10.40;81.50
14733;DHT22;7457;50.960;6.830;2023-02-13T09:54:02;10.60;80.10
14733;DHT22;7457;50.960;6.830;2023-02-13T10:15:52;12.00;77.10
14733;DHT22;7457;50.960;6.830;2023-02-13T10:18:22;12.50;77.20
14733;DHT22;7457;50.960;6.830;2023-02-13T10:25:56;13.70;73.40
14733;DHT22;7457;50.960;6.830;2023-02-13T10:28:41;14.00;73.00
14733;DHT22;7457;50.960;6.830;2023-02-13T10:31:14;14.40;73.20
14733;DHT22;7457;50.960;6.830;2023-02-13T10:33:59;14.50;70.00
14733;DHT22;7457;50.960;6.830;2023-02-13T10:36:38;14.60;68.40
14733;DHT22;7457;50.960;6.830;2023-02-13T10:52:51;15.20;66.20
14733;DHT22;7457;50.960;6.830;2023-02-13T10:55:34;15.40;65.40
14733;DHT22;7457;50.960;6.830;2023-02-13T10:58:14;15.50;64.60
14733;DHT22;7457;50.960;6.830;2023-02-13T11:01:00;15.60;64.50
14733;DHT22;7457;50.960;6.830;2023-02-13T11:03:29;15.70;64.10
14733;DHT22;7457;50.960;6.830;2023-02-13T11:05:57;15.70;63.00
14733;DHT22;7457;50.960;6.830;2023-02-13T11:08:33;15.70;62.80
14733;DHT22;7457;50.960;6.830;2023-02-13T11:10:59;15.80;62.90
14733;DHT22;7457;50.960;6.830;2023-02-13T11:13:27;15.80;61.50
14733;DHT22;7457;50.960;6.830;2023-02-13T11:16:01;15.80;61.90
14733;DHT22;7457;50.960;6.830;2023-02-13T11:18:29;15.80;61.80
14733;DHT22;7457;50.960;6.830;2023-02-13T11:21:20;15.90;61.70
14733;DHT22;7457;50.960;6.830;2023-02-13T11:23:52;15.90;61.30
14733;DHT22;7457;50.960;6.830;2023-02-13T11:26:32;16.00;62.00
14733;DHT22;7457;50.960;6.830;2023-02-13T11:32:21;16.70;61.40
14733;DHT22;7457;50.960;6.830;2023-02-13T11:34:45;16.90;60.20
14733;DHT22;7457;50.960;6.830;2023-02-13T11:39:40;17.00;60.10
14733;DHT22;7457;50.960;6.830;2023-02-13T11:42:30;17.10;59.90
14733;DHT22;7457;50.960;6.830;2023-02-13T11:45:00;17.20;59.70
14733;DHT22;7457;50.960;6.830;2023-02-13T11:47:41;17.40;59.00
14733;DHT22;7457;50.960;6.830;2023-02-13T11:50:29;17.40;58.40
14733;DHT22;7457;50.960;6.830;2023-02-13T11:53:05;17.40;57.40
14733;DHT22;7457;50.960;6.830;2023-02-13T11:55:34;17.20;57.80
14733;DHT22;7457;50.960;6.830;2023-02-13T11:58:03;17.30;58.90
14733;DHT22;7457;50.960;6.830;2023-02-13T12:00:48;17.40;58.00
14733;DHT22;7457;50.960;6.830;2023-02-13T12:03:34;17.30;57.00
14733;DHT22;7457;50.960;6.830;2023-02-13T12:08:29;17.40;57.00
14733;DHT22;7457;50.960;6.830;2023-02-13T12:10:57;17.30;56.10
14733;DHT22;7457;50.960;6.830;2023-02-13T12:13:30;17.20;56.30
14733;DHT22;7457;50.960;6.830;2023-02-13T12:16:20;17.20;56.70
14733;DHT22;7457;50.960;6.830;2023-02-13T12:18:55;17.20;55.80
14733;DHT22;7457;50.960;6.830;2023-02-13T12:26:51;17.10;56.30
14733;DHT22;7457;50.960;6.830;2023-02-13T12:46:06;16.60;54.50
14733;DHT22;7457;50.960;6.830;2023-02-13T12:49:02;16.30;54.60
14733;DHT22;7457;50.960;6.830;2023-02-13T12:55:17;15.20;56.50
14733;DHT22;7457;50.960;6.830;2023-02-13T13:01:06;14.70;58.00
14733;DHT22;7457;50.960;6.830;2023-02-13T13:03:34;14.50;58.20
14733;DHT22;7457;50.960;6.830;2023-02-13T13:06:25;14.40;58.70
14733;DHT22;7457;50.960;6.830;2023-02-13T13:17:12;14.30;59.20
14733;DHT22;7457;50.960;6.830;2023-02-13T13:22:37;14.30;59.20
14733;DHT22;7457;50.960;6.830;2023-02-13T13:25:33;14.40;59.50
14733;DHT22;7457;50.960;6.830;2023-02-13T13:30:46;14.40;59.50
14733;DHT22;7457;50.960;6.830;2023-02-13T13:33:16;14.40;59.10
14733;DHT22;7457;50.960;6.830;2023-02-13T13:41:14;14.20;59.10
14733;DHT22;7457;50.960;6.830;2023-02-13T13:47:53;14.20;58.50
14733;DHT22;7457;50.960;6.830;2023-02-13T13:49:53;14.20;58.60
14733;DHT22;7457;50.960;6.830;2023-02-13T13:52:23;14.20;58.70
14733;DHT22;7457;50.960;6.830;2023-02-13T13:54:50;14.20;58.40
14733;DHT22;7457;50.960;6.830;2023-02-13T13:57:24;14.10;58.20
14733;DHT22;7457;50.960;6.830;2023-02-13T14:07:24;14.20;59.10
14733;DHT22;7457;50.960;6.830;2023-02-13T14:09:52;14.20;59.10
14733;DHT22;7457;50.960;6.830;2023-02-13T14:14:53;14.30;58.40
14733;DHT22;7457;50.960;6.830;2023-02-13T14:23:33;14.40;58.20
14733;DHT22;7457;50.960;6.830;2023-02-13T14:28:35;14.30;58.10
14733;DHT22;7457;50.960;6.830;2023-02-13T14:31:13;14.30;58.20
14733;DHT22;7457;50.960;6.830;2023-02-13T14:33:42;14.30;58.10
14733;DHT22;7457;50.960;6.830;2023-02-13T14:36:20;14.30;58.10
14733;DHT22;7457;50.960;6.830;2023-02-13T14:38:59;14.30;58.30
14733;DHT22;7457;50.960;6.830;2023-02-13T14:44:33;14.30;58.30
14733;DHT22;7457;50.960;6.830;2023-02-13T14:49:50;14.30;57.60
14733;DHT22;7457;50.960;6.830;2023-02-13T14:52:25;14.30;57.30
14733;DHT22;7457;50.960;6.830;2023-02-13T14:55:00;14.30;57.50
14733;DHT22;7457;50.960;6.830;2023-02-13T14:57:41;14.30;57.50
14733;DHT22;7457;50.960;6.830;2023-02-13T15:00:30;14.30;57.60
14733;DHT22;7457;50.960;6.830;2023-02-13T15:03:10;14.30;57.10
14733;DHT22;7457;50.960;6.830;2023-02-13T15:05:38;14.30;57.20
14733;DHT22;7457;50.960;6.830;2023-02-13T15:08:12;14.20;57.60
14733;DHT22;7457;50.960;6.830;2023-02-13T15:13:51;14.20;57.00
14733;DHT22;7457;50.960;6.830;2023-02-13T15:16:12;14.20;57.00
14733;DHT22;7457;50.960;6.830;2023-02-13T15:18:47;14.20;57.10
14733;DHT22;7457;50.960;6.830;2023-02-13T15:21:20;14.10;57.10
14733;DHT22;7457;50.960;6.830;2023-02-13T15:23:51;14.10;57.30
14733;DHT22;7457;50.960;6.830;2023-02-13T15:26:23;14.10;57.30
14733;DHT22;7457;50.960;6.830;2023-02-13T15:28:59;14.10;57.20
14733;DHT22;7457;50.960;6.830;2023-02-13T15:31:30;14.10;57.50
14733;DHT22;7457;50.960;6.830;2023-02-13T15:33:57;14.10;57.90
14733;DHT22;7457;50.960;6.830;2023-02-13T15:36:25;14.00;58.00
14733;DHT22;7457;50.960;6.830;2023-02-13T15:39:01;13.90;57.80
14733;DHT22;7457;50.960;6.830;2023-02-13T15:41:33;13.90;57.40
14733;DHT22;7457;50.960;6.830;2023-02-13T15:44:00;13.90;57.00
14733;DHT22;7457;50.960;6.830;2023-02-13T15:46:30;13.80;57.00
14733;DHT22;7457;50.960;6.830;2023-02-13T15:49:00;13.80;57.00
14733;DHT22;7457;50.960;6.830;2023-02-13T15:51:29;13.80;57.20
14733;DHT22;7457;50.960;6.830;2023-02-13T15:53:57;13.70;57.30
14733;DHT22;7457;50.960;6.830;2023-02-13T15:56:24;13.70;57.30
14733;DHT22;7457;50.960;6.830;2023-02-13T15:58:51;13.60;57.00
14733;DHT22;7457;50.960;6.830;2023-02-13T16:01:17;13.60;57.10
14733;DHT22;7457;50.960;6.830;2023-02-13T16:03:46;13.60;57.30
14733;DHT22;7457;50.960;6.830;2023-02-13T16:06:14;13.50;57.30
14733;DHT22;7457;50.960;6.830;2023-02-13T16:08:44;13.50;57.50
14733;DHT22;7457;50.960;6.830;2023-02-13T16:14:19;13.30;57.70
14733;DHT22;7457;50.960;6.830;2023-02-13T16:17:05;13.20;57.70
14733;DHT22;7457;50.960;6.830;2023-02-13T16:24:50;13.00;58.10
14733;DHT22;7457;50.960;6.830;2023-02-13T16:27:16;13.00;58.30
14733;DHT22;7457;50.960;6.830;2023-02-13T16:32:45;12.80;58.60
14733;DHT22;7457;50.960;6.830;2023-02-13T16:35:16;12.80;58.80
14733;DHT22;7457;50.960;6.830;2023-02-13T16:37:58;12.70;59.00
14733;DHT22;7457;50.960;6.830;2023-02-13T16:43:34;12.40;59.50
14733;DHT22;7457;50.960;6.830;2023-02-13T16:48:45;12.20;59.60
14733;DHT22;7457;50.960;6.830;2023-02-13T16:51:12;12.10;59.70
14733;DHT22;7457;50.960;6.830;2023-02-13T16:53:38;12.10;59.80
14733;DHT22;7457;50.960;6.830;2023-02-13T16:56:07;12.10;59.90
14733;DHT22;7457;50.960;6.830;2023-02-13T16:58:33;12.00;60.00
14733;DHT22;7457;50.960;6.830;2023-02-13T17:00:59;11.90;60.20
14733;DHT22;7457;50.960;6.830;2023-02-13T17:03:26;11.90;60.50
14733;DHT22;7457;50.960;6.830;2023-02-13T17:05:52;11.80;60.70
14733;DHT22;7457;50.960;6.830;2023-02-13T17:08:18;11.70;61.00
14733;DHT22;7457;50.960;6.830;2023-02-13T17:11:03;11.60;61.40
14733;DHT22;7457;50.960;6.830;2023-02-13T17:13:29;11.50;61.70
14733;DHT22;7457;50.960;6.830;2023-02-13T17:15:55;11.40;62.10
14733;DHT22;7457;50.960;6.830;2023-02-13T17:18:21;11.30;62.40
14733;DHT22;7457;50.960;6.830;2023-02-13T17:20:46;11.30;62.70
14733;DHT22;7457;50.960;6.830;2023-02-13T17:23:30;11.20;63.00
14733;DHT22;7457;50.960;6.830;2023-02-13T17:25:55;11.20;63.20
14733;DHT22;7457;50.960;6.830;2023-02-13T17:28:25;11.20;63.30
14733;DHT22;7457;50.960;6.830;2023-02-13T17:30:54;11.20;63.60
14733;DHT22;7457;50.960;6.830;2023-02-13T17:33:21;11.10;63.70
14733;DHT22;7457;50.960;6.830;2023-02-13T17:35:47;11.10;63.90
14733;DHT22;7457;50.960;6.830;2023-02-13T17:38:13;11.10;64.10
14733;DHT22;7457;50.960;6.830;2023-02-13T17:40:40;11.00;64.20
14733;DHT22;7457;50.960;6.830;2023-02-13T17:43:06;11.00;64.40
14733;DHT22;7457;50.960;6.830;2023-02-13T17:45:33;10.90;64.60
14733;DHT22;7457;50.960;6.830;2023-02-13T17:47:59;10.80;64.90
14733;DHT22;7457;50.960;6.830;2023-02-13T17:50:26;10.80;65.10
14733;DHT22;7457;50.960;6.830;2023-02-13T17:52:52;10.70;65.30
14733;DHT22;7457;50.960;6.830;2023-02-13T17:55:19;10.70;65.40
14733;DHT22;7457;50.960;6.830;2023-02-13T17:57:49;10.60;65.70
14733;DHT22;7457;50.960;6.830;2023-02-13T18:00:16;10.60;66.00
14733;DHT22;7457;50.960;6.830;2023-02-13T18:02:42;10.50;66.20
14733;DHT22;7457;50.960;6.830;2023-02-13T18:05:09;10.50;66.20
14733;DHT22;7457;50.960;6.830;2023-02-13T18:07:34;10.40;66.50
14733;DHT22;7457;50.960;6.830;2023-02-13T18:10:00;10.30;66.70
14733;DHT22;7457;50.960;6.830;2023-02-13T18:12:26;10.30;66.90
14733;DHT22;7457;50.960;6.830;2023-02-13T18:14:52;10.20;67.20
14733;DHT22;7457;50.960;6.830;2023-02-13T18:17:19;10.20;67.40
14733;DHT22;7457;50.960;6.830;2023-02-13T18:19:47;10.10;67.60
14733;DHT22;7457;50.960;6.830;2023-02-13T18:22:14;10.10;67.70
14733;DHT22;7457;50.960;6.830;2023-02-13T18:24:42;10.00;67.80
14733;DHT22;7457;50.960;6.830;2023-02-13T18:27:08;10.00;68.00
14733;DHT22;7457;50.960;6.830;2023-02-13T18:29:37;9.90;68.20
14733;DHT22;7457;50.960;6.830;2023-02-13T18:32:04;9.80;68.40
14733;DHT22;7457;50.960;6.830;2023-02-13T18:34:32;9.70;68.60
14733;DHT22;7457;50.960;6.830;2023-02-13T18:36:58;9.60;68.90
14733;DHT22;7457;50.960;6.830;2023-02-13T18:39:24;9.50;69.20
14733;DHT22;7457;50.960;6.830;2023-02-13T18:41:52;9.40;69.50
14733;DHT22;7457;50.960;6.830;2023-02-13T18:44:18;9.40;69.70
14733;DHT22;7457;50.960;6.830;2023-02-13T18:46:43;9.30;70.00
14733;DHT22;7457;50.960;6.830;2023-02-13T18:49:09;9.30;70.00
14733;DHT22;7457;50.960;6.830;2023-02-13T18:51:37;9.30;70.30
14733;DHT22;7457;50.960;6.830;2023-02-13T18:54:08;9.20;70.70
14733;DHT22;7457;50.960;6.830;2023-02-13T18:56:33;9.20;71.00
14733;DHT22;7457;50.960;6.830;2023-02-13T18:58:59;9.20;71.10
14733;DHT22;7457;50.960;6.830;2023-02-13T19:01:24;9.20;70.90
14733;DHT22;7457;50.960;6.830;2023-02-13T19:03:51;9.20;71.00
14733;DHT22;7457;50.960;6.830;2023-02-13T19:06:21;9.10;71.20
14733;DHT22;7457;50.960;6.830;2023-02-13T19:08:47;9.20;71.50
14733;DHT22;7457;50.960;6.830;2023-02-13T19:11:16;9.20;71.70
14733;DHT22;7457;50.960;6.830;2023-02-13T19:13:43;9.20;71.80
14733;DHT22;7457;50.960;6.830;2023-02-13T19:16:12;9.20;71.80
14733;DHT22;7457;50.960;6.830;2023-02-13T19:18:41;9.10;71.90
14733;DHT22;7457;50.960;6.830;2023-02-13T19:21:07;9.00;72.00
14733;DHT22;7457;50.960;6.830;2023-02-13T19:23:33;8.90;72.10
14733;DHT22;7457;50.960;6.830;2023-02-13T19:26:07;8.80;72.30
14733;DHT22;7457;50.960;6.830;2023-02-13T19:28:33;8.70;72.60